sensor_id;sensor_type;location;lat;lon;timestamp;pressure;altitude;pressure_sealevel;temperature;humidity
79400;BME280;68856;45.586;10.264;2023-12-28T00:01:46;100515.56;;;7.01;nan
79400;BME280;68856;45.586;10.264;2023-12-28T00:04:13;100512.47;;;7.11;nan
79400;BME280;68856;45.586;10.264;2023-12-28T00:06:39;100516.41;;;7.02;nan
79400;BME280;68856;45.586;10.264;2023-12-28T00:09:05;100512.31;;;7.12;nan
79400;BME280;68856;45.586;10.264;2023-12-28T00:11:32;100509.03;;;7.30;nan
79400;BME280;68856;45.586;10.264;2023-12-28T00:13:58;100503.44;;;7.44;nan
79400;BME280;68856;45.586;10.264;2023-12-28T00:16:24;100511.50;;;7.31;nan
79400;BME280;68856;45.586;10.264;2023-12-28T00:18:50;100509.88;;;7.37;nan
79400;BME280;68856;45.586;10.264;2023-12-28T00:21:17;100507.53;;;7.21;nan
79400;BME280;68856;45.586;10.264;2023-12-28T00:23:43;100513.22;;;7.52;nan
79400;BME280;68856;45.586;10.264;2023-12-28T00:26:09;100509.75;;;7.97;nan
79400;BME280;68856;45.586;10.264;2023-12-28T00:28:36;100507.66;;;8.19;nan
79400;BME280;68856;45.586;10.264;2023-12-28T00:31:02;100511.59;;;7.58;nan
79400;BME280;68856;45.586;10.264;2023-12-28T00:33:28;100502.81;;;7.49;nan
79400;BME280;68856;45.586;10.264;2023-12-28T00:35:54;100505.31;;;7.37;nan
79400;BME280;68856;45.586;10.264;2023-12-28T00:38:21;100507.97;;;7.31;nan
79400;BME280;68856;45.586;10.264;2023-12-28T00:40:47;100510.09;;;7.48;nan
79400;BME280;68856;45.586;10.264;2023-12-28T00:43:13;100506.53;;;7.41;nan
79400;BME280;68856;45.586;10.264;2023-12-28T00:45:39;100508.88;;;7.64;nan
79400;BME280;68856;45.586;10.264;2023-12-28T00:48:06;100510.13;;;7.55;nan
79400;BME280;68856;45.586;10.264;2023-12-28T00:50:32;100509.81;;;7.24;nan
79400;BME280;68856;45.586;10.264;2023-12-28T00:52:59;100507.56;;;7.27;nan
79400;BME280;68856;45.586;10.264;2023-12-28T00:55:25;100504.06;;;7.40;nan
79400;BME280;68856;45.586;10.264;2023-12-28T00:57:51;100501.16;;;7.54;nan
79400;BME280;68856;45.586;10.264;2023-12-28T01:00:17;100506.00;;;7.92;nan
79400;BME280;68856;45.586;10.264;2023-12-28T01:02:44;100505.56;;;7.95;nan
79400;BME280;68856;45.586;10.264;2023-12-28T01:05:13;100503.91;;;7.74;nan
79400;BME280;68856;45.586;10.264;2023-12-28T01:07:39;100505.97;;;7.52;nan
79400;BME280;68856;45.586;10.264;2023-12-28T01:10:06;100495.75;;;7.48;nan
79400;BME280;68856;45.586;10.264;2023-12-28T01:12:32;100503.00;;;7.41;nan
79400;BME280;68856;45.586;10.264;2023-12-28T01:14:59;100508.59;;;7.26;nan
79400;BME280;68856;45.586;10.264;2023-12-28T01:17:25;100503.44;;;7.51;nan
79400;BME280;68856;45.586;10.264;2023-12-28T01:19:51;100493.28;;;7.60;nan
79400;BME280;68856;45.586;10.264;2023-12-28T01:22:18;100490.56;;;7.53;nan
79400;BME280;68856;45.586;10.264;2023-12-28T01:24:46;100495.13;;;7.39;nan
79400;BME280;68856;45.586;10.264;2023-12-28T01:27:15;100494.31;;;7.52;nan
79400;BME280;68856;45.586;10.264;2023-12-28T01:29:42;100498.63;;;7.33;nan
79400;BME280;68856;45.586;10.264;2023-12-28T01:32:08;100495.56;;;7.69;nan
79400;BME280;68856;45.586;10.264;2023-12-28T01:34:34;100505.16;;;7.85;nan
79400;BME280;68856;45.586;10.264;2023-12-28T01:37:00;100502.63;;;7.57;nan
79400;BME280;68856;45.586;10.264;2023-12-28T01:39:26;100499.25;;;7.29;nan
79400;BME280;68856;45.586;10.264;2023-12-28T01:41:53;100499.28;;;7.48;nan
79400;BME280;68856;45.586;10.264;2023-12-28T01:44:19;100492.88;;;7.63;nan
79400;BME280;68856;45.586;10.264;2023-12-28T01:46:46;100501.81;;;7.70;nan
79400;BME280;68856;45.586;10.264;2023-12-28T01:49:13;100494.56;;;7.77;nan
79400;BME280;68856;45.586;10.264;2023-12-28T01:51:39;100483.91;;;8.08;nan
79400;BME280;68856;45.586;10.264;2023-12-28T01:54:06;100482.91;;;7.76;nan
79400;BME280;68856;45.586;10.264;2023-12-28T01:56:32;100489.31;;;7.42;nan
79400;BME280;68856;45.586;10.264;2023-12-28T01:59:00;100491.13;;;7.29;nan
79400;BME280;68856;45.586;10.264;2023-12-28T02:01:26;100487.00;;;7.46;nan
79400;BME280;68856;45.586;10.264;2023-12-28T02:03:53;100481.84;;;7.90;nan
79400;BME280;68856;45.586;10.264;2023-12-28T02:06:23;100486.44;;;7.70;nan
79400;BME280;68856;45.586;10.264;2023-12-28T02:08:50;100468.31;;;7.64;nan
79400;BME280;68856;45.586;10.264;2023-12-28T02:11:17;100463.13;;;8.15;nan
79400;BME280;68856;45.586;10.264;2023-12-28T02:13:44;100472.09;;;7.89;nan
79400;BME280;68856;45.586;10.264;2023-12-28T02:16:15;100459.78;;;8.20;nan
79400;BME280;68856;45.586;10.264;2023-12-28T02:18:50;100458.34;;;7.91;nan
79400;BME280;68856;45.586;10.264;2023-12-28T02:21:18;100469.97;;;7.52;nan
79400;BME280;68856;45.586;10.264;2023-12-28T02:23:51;100467.94;;;7.74;nan
79400;BME280;68856;45.586;10.264;2023-12-28T02:26:18;100450.84;;;7.80;nan
79400;BME280;68856;45.586;10.264;2023-12-28T02:28:47;100465.84;;;7.76;nan
79400;BME280;68856;45.586;10.264;2023-12-28T02:31:28;100463.75;;;7.91;nan
79400;BME280;68856;45.586;10.264;2023-12-28T02:34:04;100461.25;;;7.83;nan
79400;BME280;68856;45.586;10.264;2023-12-28T02:36:33;100459.19;;;7.91;nan
79400;BME280;68856;45.586;10.264;2023-12-28T02:39:01;100455.44;;;7.86;nan
79400;BME280;68856;45.586;10.264;2023-12-28T02:41:30;100460.00;;;7.85;nan
79400;BME280;68856;45.586;10.264;2023-12-28T02:43:57;100441.06;;;8.18;nan
79400;BME280;68856;45.586;10.264;2023-12-28T02:46:24;100447.75;;;7.89;nan
79400;BME280;68856;45.586;10.264;2023-12-28T02:48:50;100458.97;;;7.80;nan
79400;BME280;68856;45.586;10.264;2023-12-28T02:51:18;100461.25;;;7.83;nan
79400;BME280;68856;45.586;10.264;2023-12-28T02:53:45;100438.97;;;8.20;nan
79400;BME280;68856;45.586;10.264;2023-12-28T02:56:11;100447.94;;;7.94;nan
79400;BME280;68856;45.586;10.264;2023-12-28T02:58:37;100457.31;;;7.79;nan
79400;BME280;68856;45.586;10.264;2023-12-28T03:01:03;100452.13;;;7.84;nan
79400;BME280;68856;45.586;10.264;2023-12-28T03:03:30;100447.53;;;7.97;nan
79400;BME280;68856;45.586;10.264;2023-12-28T03:05:56;100447.13;;;7.61;nan
79400;BME280;68856;45.586;10.264;2023-12-28T03:08:22;100456.28;;;7.86;nan
79400;BME280;68856;45.586;10.264;2023-12-28T03:10:49;100442.09;;;8.17;nan
79400;BME280;68856;45.586;10.264;2023-12-28T03:13:15;100450.03;;;7.86;nan
79400;BME280;68856;45.586;10.264;2023-12-28T03:15:41;100449.81;;;7.87;nan
79400;BME280;68856;45.586;10.264;2023-12-28T03:18:08;100446.03;;;8.08;nan
79400;BME280;68856;45.586;10.264;2023-12-28T03:20:34;100457.09;;;8.06;nan
79400;BME280;68856;45.586;10.264;2023-12-28T03:23:00;100450.63;;;7.62;nan
79400;BME280;68856;45.586;10.264;2023-12-28T03:25:26;100459.56;;;7.49;nan
79400;BME280;68856;45.586;10.264;2023-12-28T03:27:52;100460.59;;;7.41;nan
79400;BME280;68856;45.586;10.264;2023-12-28T03:30:20;100454.59;;;7.52;nan
79400;BME280;68856;45.586;10.264;2023-12-28T03:32:47;100454.81;;;7.90;nan
79400;BME280;68856;45.586;10.264;2023-12-28T03:35:13;100446.47;;;8.18;nan
79400;BME280;68856;45.586;10.264;2023-12-28T03:37:39;100440.22;;;8.04;nan
79400;BME280;68856;45.586;10.264;2023-12-28T03:40:06;100453.56;;;7.80;nan
79400;BME280;68856;45.586;10.264;2023-12-28T03:42:32;100452.75;;;7.66;nan
79400;BME280;68856;45.586;10.264;2023-12-28T03:44:59;100451.88;;;7.72;nan
79400;BME280;68856;45.586;10.264;2023-12-28T03:47:25;100440.59;;;8.21;nan
79400;BME280;68856;45.586;10.264;2023-12-28T03:49:51;100436.88;;;8.22;nan
79400;BME280;68856;45.586;10.264;2023-12-28T03:52:17;100429.19;;;7.93;nan
79400;BME280;68856;45.586;10.264;2023-12-28T03:54:44;100427.97;;;7.89;nan
79400;BME280;68856;45.586;10.264;2023-12-28T03:57:10;100427.56;;;7.72;nan
79400;BME280;68856;45.586;10.264;2023-12-28T03:59:36;100426.31;;;7.68;nan
79400;BME280;68856;45.586;10.264;2023-12-28T04:02:03;100419.19;;;8.13;nan
79400;BME280;68856;45.586;10.264;2023-12-28T04:04:29;100416.28;;;7.95;nan
79400;BME280;68856;45.586;10.264;2023-12-28T04:06:55;100414.63;;;7.87;nan
79400;BME280;68856;45.586;10.264;2023-12-28T04:09:21;100417.16;;;7.89;nan
79400;BME280;68856;45.586;10.264;2023-12-28T04:11:48;100415.28;;;7.70;nan
79400;BME280;68856;45.586;10.264;2023-12-28T04:14:14;100408.22;;;7.62;nan
79400;BME280;68856;45.586;10.264;2023-12-28T04:16:40;100409.06;;;7.56;nan
79400;BME280;68856;45.586;10.264;2023-12-28T04:19:07;100407.16;;;7.70;nan
79400;BME280;68856;45.586;10.264;2023-12-28T04:21:33;100405.31;;;7.64;nan
79400;BME280;68856;45.586;10.264;2023-12-28T04:24:00;100401.94;;;8.07;nan
79400;BME280;68856;45.586;10.264;2023-12-28T04:26:26;100400.03;;;8.28;nan
79400;BME280;68856;45.586;10.264;2023-12-28T04:28:52;100399.81;;;8.16;nan
79400;BME280;68856;45.586;10.264;2023-12-28T04:31:19;100399.44;;;7.99;nan
79400;BME280;68856;45.586;10.264;2023-12-28T04:33:45;100402.56;;;8.09;nan
79400;BME280;68856;45.586;10.264;2023-12-28T04:36:11;100414.00;;;8.11;nan
79400;BME280;68856;45.586;10.264;2023-12-28T04:38:38;100408.81;;;8.10;nan
79400;BME280;68856;45.586;10.264;2023-12-28T04:41:04;100404.66;;;7.94;nan
79400;BME280;68856;45.586;10.264;2023-12-28T04:43:31;100408.81;;;7.97;nan
79400;BME280;68856;45.586;10.264;2023-12-28T04:45:57;100414.81;;;8.18;nan
79400;BME280;68856;45.586;10.264;2023-12-28T04:48:23;100409.84;;;8.02;nan
79400;BME280;68856;45.586;10.264;2023-12-28T04:50:52;100398.19;;;8.28;nan
79400;BME280;68856;45.586;10.264;2023-12-28T04:53:18;100412.28;;;8.37;nan
79400;BME280;68856;45.586;10.264;2023-12-28T04:55:45;100411.72;;;8.15;nan
79400;BME280;68856;45.586;10.264;2023-12-28T04:58:11;100410.28;;;7.99;nan
79400;BME280;68856;45.586;10.264;2023-12-28T05:00:40;100421.50;;;7.90;nan
79400;BME280;68856;45.586;10.264;2023-12-28T05:03:07;100429.22;;;7.60;nan
79400;BME280;68856;45.586;10.264;2023-12-28T05:05:33;100429.84;;;7.69;nan
79400;BME280;68856;45.586;10.264;2023-12-28T05:07:59;100424.44;;;7.88;nan
79400;BME280;68856;45.586;10.264;2023-12-28T05:10:26;100428.16;;;7.87;nan
79400;BME280;68856;45.586;10.264;2023-12-28T05:12:53;100441.91;;;7.60;nan
79400;BME280;68856;45.586;10.264;2023-12-28T05:15:19;100446.66;;;7.51;nan
79400;BME280;68856;45.586;10.264;2023-12-28T05:17:45;100437.53;;;8.04;nan
79400;BME280;68856;45.586;10.264;2023-12-28T05:20:12;100437.31;;;8.12;nan
79400;BME280;68856;45.586;10.264;2023-12-28T05:22:38;100444.78;;;8.10;nan
79400;BME280;68856;45.586;10.264;2023-12-28T05:25:05;100444.38;;;8.00;nan
79400;BME280;68856;45.586;10.264;2023-12-28T05:27:31;100452.72;;;7.86;nan
79400;BME280;68856;45.586;10.264;2023-12-28T05:29:57;100447.47;;;8.24;nan
79400;BME280;68856;45.586;10.264;2023-12-28T05:32:23;100445.19;;;8.34;nan
79400;BME280;68856;45.586;10.264;2023-12-28T05:34:50;100432.53;;;8.28;nan
79400;BME280;68856;45.586;10.264;2023-12-28T05:37:16;100437.19;;;8.65;nan
79400;BME280;68856;45.586;10.264;2023-12-28T05:39:43;100449.22;;;8.75;nan
79400;BME280;68856;45.586;10.264;2023-12-28T05:42:09;100448.94;;;8.26;nan
79400;BME280;68856;45.586;10.264;2023-12-28T05:44:35;100458.13;;;7.86;nan
79400;BME280;68856;45.586;10.264;2023-12-28T05:47:01;100459.81;;;7.93;nan
79400;BME280;68856;45.586;10.264;2023-12-28T05:49:29;100457.28;;;8.11;nan
79400;BME280;68856;45.586;10.264;2023-12-28T05:51:56;100449.38;;;8.10;nan
79400;BME280;68856;45.586;10.264;2023-12-28T05:54:22;100451.06;;;7.91;nan
79400;BME280;68856;45.586;10.264;2023-12-28T05:56:49;100457.28;;;7.59;nan
79400;BME280;68856;45.586;10.264;2023-12-28T05:59:15;100451.50;;;7.82;nan
79400;BME280;68856;45.586;10.264;2023-12-28T06:01:44;100451.03;;;8.24;nan
79400;BME280;68856;45.586;10.264;2023-12-28T06:04:11;100449.38;;;8.23;nan
79400;BME280;68856;45.586;10.264;2023-12-28T06:06:37;100463.13;;;7.69;nan
79400;BME280;68856;45.586;10.264;2023-12-28T06:09:03;100453.78;;;7.78;nan
79400;BME280;68856;45.586;10.264;2023-12-28T06:11:30;100457.72;;;7.82;nan
79400;BME280;68856;45.586;10.264;2023-12-28T06:13:56;100446.03;;;8.08;nan
79400;BME280;68856;45.586;10.264;2023-12-28T06:16:23;100442.94;;;8.18;nan
79400;BME280;68856;45.586;10.264;2023-12-28T06:18:49;100446.44;;;8.31;nan
79400;BME280;68856;45.586;10.264;2023-12-28T06:21:15;100442.91;;;8.24;nan
79400;BME280;68856;45.586;10.264;2023-12-28T06:23:42;100444.59;;;8.12;nan
79400;BME280;68856;45.586;10.264;2023-12-28T06:26:08;100454.59;;;7.98;nan
79400;BME280;68856;45.586;10.264;2023-12-28T06:28:34;100462.72;;;7.92;nan
79400;BME280;68856;45.586;10.264;2023-12-28T06:31:00;100458.53;;;8.09;nan
79400;BME280;68856;45.586;10.264;2023-12-28T06:33:30;100461.03;;;8.30;nan
79400;BME280;68856;45.586;10.264;2023-12-28T06:35:56;100472.06;;;8.29;nan
79400;BME280;68856;45.586;10.264;2023-12-28T06:38:25;100477.06;;;8.25;nan
79400;BME280;68856;45.586;10.264;2023-12-28T06:40:52;100456.88;;;8.41;nan
79400;BME280;68856;45.586;10.264;2023-12-28T06:43:18;100467.00;;;8.52;nan
79400;BME280;68856;45.586;10.264;2023-12-28T06:45:44;100484.78;;;8.02;nan
79400;BME280;68856;45.586;10.264;2023-12-28T06:48:11;100467.50;;;8.36;nan
79400;BME280;68856;45.586;10.264;2023-12-28T06:50:37;100466.41;;;8.50;nan
79400;BME280;68856;45.586;10.264;2023-12-28T06:53:04;100471.84;;;8.24;nan
79400;BME280;68856;45.586;10.264;2023-12-28T06:55:30;100459.38;;;8.36;nan
79400;BME280;68856;45.586;10.264;2023-12-28T06:57:56;100463.09;;;8.22;nan
79400;BME280;68856;45.586;10.264;2023-12-28T07:00:23;100473.31;;;7.80;nan
79400;BME280;68856;45.586;10.264;2023-12-28T07:02:49;100457.28;;;8.25;nan
79400;BME280;68856;45.586;10.264;2023-12-28T07:05:15;100452.28;;;8.35;nan
79400;BME280;68856;45.586;10.264;2023-12-28T07:07:41;100455.38;;;8.51;nan
79400;BME280;68856;45.586;10.264;2023-12-28T07:10:08;100454.72;;;8.56;nan
79400;BME280;68856;45.586;10.264;2023-12-28T07:12:34;100468.34;;;8.10;nan
79400;BME280;68856;45.586;10.264;2023-12-28T07:15:01;100457.28;;;8.18;nan
79400;BME280;68856;45.586;10.264;2023-12-28T07:17:27;100462.91;;;8.30;nan
79400;BME280;68856;45.586;10.264;2023-12-28T07:19:54;100466.44;;;8.43;nan
79400;BME280;68856;45.586;10.264;2023-12-28T07:22:20;100457.91;;;8.33;nan
79400;BME280;68856;45.586;10.264;2023-12-28T07:24:46;100460.56;;;8.53;nan
79400;BME280;68856;45.586;10.264;2023-12-28T07:27:12;100465.41;;;8.11;nan
79400;BME280;68856;45.586;10.264;2023-12-28T07:29:38;100480.59;;;7.80;nan
79400;BME280;68856;45.586;10.264;2023-12-28T07:32:05;100478.31;;;8.09;nan
79400;BME280;68856;45.586;10.264;2023-12-28T07:34:31;100477.06;;;7.99;nan
79400;BME280;68856;45.586;10.264;2023-12-28T07:36:57;100477.06;;;7.92;nan
79400;BME280;68856;45.586;10.264;2023-12-28T07:39:24;100487.28;;;8.10;nan
79400;BME280;68856;45.586;10.264;2023-12-28T07:41:50;100472.84;;;8.55;nan
79400;BME280;68856;45.586;10.264;2023-12-28T07:44:16;100480.81;;;8.44;nan
79400;BME280;68856;45.586;10.264;2023-12-28T07:46:43;100475.09;;;8.65;nan
79400;BME280;68856;45.586;10.264;2023-12-28T07:49:09;100483.69;;;8.62;nan
79400;BME280;68856;45.586;10.264;2023-12-28T07:51:35;100479.97;;;8.37;nan
79400;BME280;68856;45.586;10.264;2023-12-28T07:54:01;100486.84;;;8.13;nan
79400;BME280;68856;45.586;10.264;2023-12-28T07:56:28;100493.09;;;8.27;nan
79400;BME280;68856;45.586;10.264;2023-12-28T07:58:54;100483.72;;;8.49;nan
79400;BME280;68856;45.586;10.264;2023-12-28T08:01:21;100488.06;;;8.56;nan
79400;BME280;68856;45.586;10.264;2023-12-28T08:03:48;100494.97;;;8.33;nan
79400;BME280;68856;45.586;10.264;2023-12-28T08:06:14;100496.41;;;8.09;nan
79400;BME280;68856;45.586;10.264;2023-12-28T08:08:40;100498.06;;;8.36;nan
79400;BME280;68856;45.586;10.264;2023-12-28T08:11:06;100480.38;;;8.53;nan
79400;BME280;68856;45.586;10.264;2023-12-28T08:13:33;100482.56;;;8.83;nan
79400;BME280;68856;45.586;10.264;2023-12-28T08:15:59;100478.94;;;8.38;nan
79400;BME280;68856;45.586;10.264;2023-12-28T08:18:25;100489.97;;;8.36;nan
79400;BME280;68856;45.586;10.264;2023-12-28T08:20:52;100493.31;;;8.38;nan
79400;BME280;68856;45.586;10.264;2023-12-28T08:23:18;100492.72;;;8.94;nan
79400;BME280;68856;45.586;10.264;2023-12-28T08:25:44;100496.91;;;8.83;nan
79400;BME280;68856;45.586;10.264;2023-12-28T08:28:11;100497.88;;;9.08;nan
79400;BME280;68856;45.586;10.264;2023-12-28T08:30:37;100511.34;;;8.77;nan
79400;BME280;68856;45.586;10.264;2023-12-28T08:33:04;100515.13;;;8.50;nan
79400;BME280;68856;45.586;10.264;2023-12-28T08:35:30;100512.94;;;8.98;nan
79400;BME280;68856;45.586;10.264;2023-12-28T08:37:56;100523.78;;;8.91;nan
79400;BME280;68856;45.586;10.264;2023-12-28T08:40:22;100524.28;;;8.68;nan
79400;BME280;68856;45.586;10.264;2023-12-28T08:42:49;100530.72;;;8.74;nan
79400;BME280;68856;45.586;10.264;2023-12-28T08:45:15;100530.31;;;8.77;nan
79400;BME280;68856;45.586;10.264;2023-12-28T08:47:41;100529.53;;;9.21;nan
79400;BME280;68856;45.586;10.264;2023-12-28T08:50:08;100529.53;;;9.14;nan
79400;BME280;68856;45.586;10.264;2023-12-28T08:52:35;100520.38;;;9.15;nan
79400;BME280;68856;45.586;10.264;2023-12-28T08:55:01;100521.09;;;9.35;nan
79400;BME280;68856;45.586;10.264;2023-12-28T08:57:28;100525.63;;;9.48;nan
79400;BME280;68856;45.586;10.264;2023-12-28T08:59:54;100535.75;;;9.21;nan
79400;BME280;68856;45.586;10.264;2023-12-28T09:02:21;100533.44;;;9.25;nan
79400;BME280;68856;45.586;10.264;2023-12-28T09:04:47;100536.34;;;9.36;nan
79400;BME280;68856;45.586;10.264;2023-12-28T09:07:13;100538.69;;;9.64;nan
79400;BME280;68856;45.586;10.264;2023-12-28T09:09:40;100544.53;;;9.17;nan
79400;BME280;68856;45.586;10.264;2023-12-28T09:12:07;100547.75;;;9.45;nan
79400;BME280;68856;45.586;10.264;2023-12-28T09:14:33;100539.09;;;9.23;nan
79400;BME280;68856;45.586;10.264;2023-12-28T09:16:59;100545.97;;;9.26;nan
79400;BME280;68856;45.586;10.264;2023-12-28T09:19:26;100553.50;;;9.17;nan
79400;BME280;68856;45.586;10.264;2023-12-28T09:21:52;100553.69;;;9.29;nan
79400;BME280;68856;45.586;10.264;2023-12-28T09:24:18;100552.63;;;9.30;nan
79400;BME280;68856;45.586;10.264;2023-12-28T09:26:44;100548.75;;;9.51;nan
79400;BME280;68856;45.586;10.264;2023-12-28T09:29:11;100557.31;;;9.48;nan
79400;BME280;68856;45.586;10.264;2023-12-28T09:31:39;100554.53;;;9.67;nan
79400;BME280;68856;45.586;10.264;2023-12-28T09:34:05;100559.22;;;9.47;nan
79400;BME280;68856;45.586;10.264;2023-12-28T09:36:31;100557.16;;;9.43;nan
79400;BME280;68856;45.586;10.264;2023-12-28T09:38:58;100551.66;;;9.56;nan
79400;BME280;68856;45.586;10.264;2023-12-28T09:41:29;100544.69;;;9.73;nan
79400;BME280;68856;45.586;10.264;2023-12-28T09:44:13;100555.03;;;9.45;nan
79400;BME280;68856;45.586;10.264;2023-12-28T09:46:43;100555.09;;;9.38;nan
79400;BME280;68856;45.586;10.264;2023-12-28T09:49:11;100552.91;;;9.60;nan
79400;BME280;68856;45.586;10.264;2023-12-28T09:51:37;100555.06;;;9.76;nan
79400;BME280;68856;45.586;10.264;2023-12-28T09:54:07;100550.38;;;9.58;nan
79400;BME280;68856;45.586;10.264;2023-12-28T09:56:33;100557.50;;;9.53;nan
79400;BME280;68856;45.586;10.264;2023-12-28T09:59:03;100549.78;;;9.87;nan
79400;BME280;68856;45.586;10.264;2023-12-28T10:01:31;100549.31;;;9.97;nan
79400;BME280;68856;45.586;10.264;2023-12-28T10:03:58;100550.34;;;10.27;nan
79400;BME280;68856;45.586;10.264;2023-12-28T10:06:24;100548.59;;;10.39;nan
79400;BME280;68856;45.586;10.264;2023-12-28T10:08:51;100544.59;;;10.42;nan
79400;BME280;68856;45.586;10.264;2023-12-28T10:11:20;100538.59;;;10.33;nan
79400;BME280;68856;45.586;10.264;2023-12-28T10:13:49;100540.84;;;10.12;nan
79400;BME280;68856;45.586;10.264;2023-12-28T10:16:15;100536.16;;;9.94;nan
79400;BME280;68856;45.586;10.264;2023-12-28T10:18:42;100533.53;;;9.81;nan
79400;BME280;68856;45.586;10.264;2023-12-28T10:21:09;100534.34;;;9.88;nan
79400;BME280;68856;45.586;10.264;2023-12-28T10:23:36;100517.16;;;10.25;nan
79400;BME280;68856;45.586;10.264;2023-12-28T10:26:04;100519.00;;;10.31;nan
79400;BME280;68856;45.586;10.264;2023-12-28T10:28:32;100519.41;;;10.03;nan
79400;BME280;68856;45.586;10.264;2023-12-28T10:30:59;100507.72;;;10.03;nan
79400;BME280;68856;45.586;10.264;2023-12-28T10:33:25;100510.72;;;10.20;nan
79400;BME280;68856;45.586;10.264;2023-12-28T10:35:52;100502.38;;;10.21;nan
79400;BME280;68856;45.586;10.264;2023-12-28T10:38:19;100503.69;;;10.12;nan
79400;BME280;68856;45.586;10.264;2023-12-28T10:40:47;100501.19;;;10.11;nan
79400;BME280;68856;45.586;10.264;2023-12-28T10:43:20;100486.00;;;10.03;nan
79400;BME280;68856;45.586;10.264;2023-12-28T10:45:51;100491.16;;;10.36;nan
79400;BME280;68856;45.586;10.264;2023-12-28T10:48:34;100487.06;;;10.27;nan
79400;BME280;68856;45.586;10.264;2023-12-28T10:51:05;100473.09;;;10.23;nan
79400;BME280;68856;45.586;10.264;2023-12-28T10:56:36;100468.88;;;10.27;nan
79400;BME280;68856;45.586;10.264;2023-12-28T11:02:07;100452.28;;;10.35;nan
79400;BME280;68856;45.586;10.264;2023-12-28T11:04:44;100447.50;;;10.37;nan
79400;BME280;68856;45.586;10.264;2023-12-28T11:07:14;100439.94;;;10.57;nan
79400;BME280;68856;45.586;10.264;2023-12-28T11:09:44;100437.72;;;10.84;nan
79400;BME280;68856;45.586;10.264;2023-12-28T11:12:11;100433.94;;;11.03;nan
79400;BME280;68856;45.586;10.264;2023-12-28T11:14:41;100432.38;;;10.96;nan
79400;BME280;68856;45.586;10.264;2023-12-28T11:17:09;100424.63;;;11.11;nan
79400;BME280;68856;45.586;10.264;2023-12-28T11:19:36;100421.75;;;11.36;nan
79400;BME280;68856;45.586;10.264;2023-12-28T11:22:04;100414.41;;;11.36;nan
79400;BME280;68856;45.586;10.264;2023-12-28T11:24:32;100403.06;;;11.39;nan
79400;BME280;68856;45.586;10.264;2023-12-28T11:26:58;100394.41;;;11.72;nan
79400;BME280;68856;45.586;10.264;2023-12-28T11:29:25;100399.44;;;11.45;nan
79400;BME280;68856;45.586;10.264;2023-12-28T11:31:54;100398.00;;;11.43;nan
79400;BME280;68856;45.586;10.264;2023-12-28T11:34:28;100404.63;;;11.35;nan
79400;BME280;68856;45.586;10.264;2023-12-28T11:36:56;100404.75;;;11.40;nan
79400;BME280;68856;45.586;10.264;2023-12-28T11:39:43;100407.56;;;11.75;nan
79400;BME280;68856;45.586;10.264;2023-12-28T11:42:10;100419.50;;;11.33;nan
79400;BME280;68856;45.586;10.264;2023-12-28T11:44:41;100403.91;;;11.81;nan
79400;BME280;68856;45.586;10.264;2023-12-28T11:47:21;100404.50;;;11.95;nan
79400;BME280;68856;45.586;10.264;2023-12-28T11:49:48;100397.41;;;11.94;nan
79400;BME280;68856;45.586;10.264;2023-12-28T11:52:25;100401.19;;;11.81;nan
79400;BME280;68856;45.586;10.264;2023-12-28T11:54:51;100384.38;;;11.96;nan
79400;BME280;68856;45.586;10.264;2023-12-28T11:57:18;100398.81;;;11.84;nan
79400;BME280;68856;45.586;10.264;2023-12-28T11:59:44;100400.16;;;11.52;nan
79400;BME280;68856;45.586;10.264;2023-12-28T12:02:11;100386.56;;;11.52;nan
79400;BME280;68856;45.586;10.264;2023-12-28T12:04:37;100385.31;;;11.78;nan
79400;BME280;68856;45.586;10.264;2023-12-28T12:07:04;100372.41;;;12.20;nan
79400;BME280;68856;45.586;10.264;2023-12-28T12:09:31;100374.88;;;12.33;nan
79400;BME280;68856;45.586;10.264;2023-12-28T12:12:04;100365.66;;;12.62;nan
79400;BME280;68856;45.586;10.264;2023-12-28T12:14:31;100361.25;;;12.21;nan
79400;BME280;68856;45.586;10.264;2023-12-28T12:16:57;100354.91;;;12.56;nan
79400;BME280;68856;45.586;10.264;2023-12-28T12:19:25;100356.44;;;12.91;nan
79400;BME280;68856;45.586;10.264;2023-12-28T12:21:58;100351.19;;;13.01;nan
79400;BME280;68856;45.586;10.264;2023-12-28T12:24:24;100340.59;;;13.33;nan
79400;BME280;68856;45.586;10.264;2023-12-28T12:26:52;100345.38;;;13.09;nan
79400;BME280;68856;45.586;10.264;2023-12-28T12:29:18;100339.94;;;12.70;nan
79400;BME280;68856;45.586;10.264;2023-12-28T12:31:47;100340.38;;;12.78;nan
79400;BME280;68856;45.586;10.264;2023-12-28T12:34:17;100337.78;;;12.43;nan
79400;BME280;68856;45.586;10.264;2023-12-28T12:36:44;100341.13;;;12.11;nan
79400;BME280;68856;45.586;10.264;2023-12-28T12:39:11;100340.44;;;12.15;nan
79400;BME280;68856;45.586;10.264;2023-12-28T12:41:37;100339.28;;;11.88;nan
79400;BME280;68856;45.586;10.264;2023-12-28T12:44:04;100349.91;;;11.66;nan
79400;BME280;68856;45.586;10.264;2023-12-28T12:46:31;100350.34;;;11.40;nan
79400;BME280;68856;45.586;10.264;2023-12-28T12:49:01;100341.66;;;11.84;nan
79400;BME280;68856;45.586;10.264;2023-12-28T12:51:28;100344.56;;;11.60;nan
79400;BME280;68856;45.586;10.264;2023-12-28T12:53:59;100348.00;;;11.67;nan
79400;BME280;68856;45.586;10.264;2023-12-28T12:56:31;100353.53;;;11.37;nan
79400;BME280;68856;45.586;10.264;2023-12-28T12:58:58;100352.56;;;10.90;nan
79400;BME280;68856;45.586;10.264;2023-12-28T13:01:24;100355.03;;;11.21;nan
79400;BME280;68856;45.586;10.264;2023-12-28T13:03:51;100355.28;;;11.32;nan
79400;BME280;68856;45.586;10.264;2023-12-28T13:06:18;100350.69;;;11.32;nan
79400;BME280;68856;45.586;10.264;2023-12-28T13:08:44;100347.97;;;11.44;nan
79400;BME280;68856;45.586;10.264;2023-12-28T13:11:11;100353.28;;;10.97;nan
79400;BME280;68856;45.586;10.264;2023-12-28T13:13:37;100342.16;;;10.39;nan